sensor_id;sensor_type;location;lat;lon;timestamp;temperature;humidity
19214;DHT22;9741;51.020;5.304;2023-04-15T00:01:37;6.40;49.70
19214;DHT22;9741;51.020;5.304;2023-04-15T00:04:04;6.40;49.80
19214;DHT22;9741;51.020;5.304;2023-04-15T00:06:32;6.40;49.90
19214;DHT22;9741;51.020;5.304;2023-04-15T00:08:59;6.40;50.00
19214;DHT22;9741;51.020;5.304;2023-04-15T00:11:27;6.30;50.00
19214;DHT22;9741;51.020;5.304;2023-04-15T00:13:54;6.30;50.00
19214;DHT22;9741;51.020;5.304;2023-04-15T00:16:23;6.30;50.10
19214;DHT22;9741;51.020;5.304;2023-04-15T00:18:50;6.30;50.20
19214;DHT22;9741;51.020;5.304;2023-04-15T00:21:17;6.30;50.20
19214;DHT22;9741;51.020;5.304;2023-04-15T00:23:44;6.30;50.30
19214;DHT22;9741;51.020;5.304;2023-04-15T00:26:14;6.30;50.40
19214;DHT22;9741;51.020;5.304;2023-04-15T00:28:42;6.30;50.40
19214;DHT22;9741;51.020;5.304;2023-04-15T00:31:10;6.30;50.50
19214;DHT22;9741;51.020;5.304;2023-04-15T00:33:37;6.30;50.50
19214;DHT22;9741;51.020;5.304;2023-04-15T00:36:05;6.30;50.60
19214;DHT22;9741;51.020;5.304;2023-04-15T00:38:33;6.40;50.70
19214;DHT22;9741;51.020;5.304;2023-04-15T00:41:00;6.40;50.70
19214;DHT22;9741;51.020;5.304;2023-04-15T00:43:29;6.40;50.70
19214;DHT22;9741;51.020;5.304;2023-04-15T00:45:58;6.50;50.80
19214;DHT22;9741;51.020;5.304;2023-04-15T00:48:25;6.50;50.80
19214;DHT22;9741;51.020;5.304;2023-04-15T00:50:53;6.60;50.90
19214;DHT22;9741;51.020;5.304;2023-04-15T00:53:20;6.70;51.00
19214;DHT22;9741;51.020;5.304;2023-04-15T00:55:48;6.80;51.00
19214;DHT22;9741;51.020;5.304;2023-04-15T00:58:16;6.90;51.00
19214;DHT22;9741;51.020;5.304;2023-04-15T01:00:44;6.90;51.00
19214;DHT22;9741;51.020;5.304;2023-04-15T01:03:12;7.00;51.00
19214;DHT22;9741;51.020;5.304;2023-04-15T01:05:40;7.10;51.10
19214;DHT22;9741;51.020;5.304;2023-04-15T01:08:07;7.10;51.10
19214;DHT22;9741;51.020;5.304;2023-04-15T01:10:34;7.10;51.60
19214;DHT22;9741;51.020;5.304;2023-04-15T01:13:02;7.20;51.10
19214;DHT22;9741;51.020;5.304;2023-04-15T01:15:29;7.20;51.60
19214;DHT22;9741;51.020;5.304;2023-04-15T01:17:58;7.20;51.00
19214;DHT22;9741;51.020;5.304;2023-04-15T01:20:27;7.30;51.10
19214;DHT22;9741;51.020;5.304;2023-04-15T01:22:54;7.30;51.10
19214;DHT22;9741;51.020;5.304;2023-04-15T01:25:30;7.30;51.20
19214;DHT22;9741;51.020;5.304;2023-04-15T01:27:58;7.40;51.20
19214;DHT22;9741;51.020;5.304;2023-04-15T01:30:25;7.40;51.20
19214;DHT22;9741;51.020;5.304;2023-04-15T01:32:52;7.50;51.20
19214;DHT22;9741;51.020;5.304;2023-04-15T01:35:22;7.50;51.20
19214;DHT22;9741;51.020;5.304;2023-04-15T01:37:50;7.60;51.20
19214;DHT22;9741;51.020;5.304;2023-04-15T01:40:17;7.70;51.20
19214;DHT22;9741;51.020;5.304;2023-04-15T01:42:46;7.70;51.20
19214;DHT22;9741;51.020;5.304;2023-04-15T01:45:13;7.80;51.30
19214;DHT22;9741;51.020;5.304;2023-04-15T01:47:40;7.80;51.30
19214;DHT22;9741;51.020;5.304;2023-04-15T01:50:07;7.90;51.40
19214;DHT22;9741;51.020;5.304;2023-04-15T01:52:35;7.90;51.40
19214;DHT22;9741;51.020;5.304;2023-04-15T01:55:02;8.00;51.40
19214;DHT22;9741;51.020;5.304;2023-04-15T01:57:29;8.00;51.50
19214;DHT22;9741;51.020;5.304;2023-04-15T01:59:58;8.10;51.60
19214;DHT22;9741;51.020;5.304;2023-04-15T02:02:25;8.10;51.60
19214;DHT22;9741;51.020;5.304;2023-04-15T02:04:52;8.20;51.70
19214;DHT22;9741;51.020;5.304;2023-04-15T02:07:20;8.20;51.70
19214;DHT22;9741;51.020;5.304;2023-04-15T02:09:47;8.30;51.80
19214;DHT22;9741;51.020;5.304;2023-04-15T02:12:14;8.30;51.80
19214;DHT22;9741;51.020;5.304;2023-04-15T02:14:41;8.30;51.80
19214;DHT22;9741;51.020;5.304;2023-04-15T02:17:10;8.30;51.80
19214;DHT22;9741;51.020;5.304;2023-04-15T02:19:37;8.40;51.90
19214;DHT22;9741;51.020;5.304;2023-04-15T02:22:05;8.40;52.00
19214;DHT22;9741;51.020;5.304;2023-04-15T02:24:34;8.40;51.90
19214;DHT22;9741;51.020;5.304;2023-04-15T02:27:01;8.40;51.90
19214;DHT22;9741;51.020;5.304;2023-04-15T02:29:28;8.50;51.90
19214;DHT22;9741;51.020;5.304;2023-04-15T02:31:57;8.60;52.00
19214;DHT22;9741;51.020;5.304;2023-04-15T02:34:25;8.60;51.90
19214;DHT22;9741;51.020;5.304;2023-04-15T02:36:52;8.60;51.90
19214;DHT22;9741;51.020;5.304;2023-04-15T02:39:22;8.70;51.80
19214;DHT22;9741;51.020;5.304;2023-04-15T02:41:49;8.70;51.80
19214;DHT22;9741;51.020;5.304;2023-04-15T02:44:17;8.80;51.80
19214;DHT22;9741;51.020;5.304;2023-04-15T02:46:45;8.80;51.70
19214;DHT22;9741;51.020;5.304;2023-04-15T02:49:15;8.80;51.70
19214;DHT22;9741;51.020;5.304;2023-04-15T02:51:43;8.80;51.70
19214;DHT22;9741;51.020;5.304;2023-04-15T02:54:13;8.80;51.70
19214;DHT22;9741;51.020;5.304;2023-04-15T02:56:40;8.80;51.60
19214;DHT22;9741;51.020;5.304;2023-04-15T02:59:07;8.90;51.60
19214;DHT22;9741;51.020;5.304;2023-04-15T03:01:34;8.90;51.60
19214;DHT22;9741;51.020;5.304;2023-04-15T03:04:01;8.90;51.50
19214;DHT22;9741;51.020;5.304;2023-04-15T03:06:28;8.90;51.50
19214;DHT22;9741;51.020;5.304;2023-04-15T03:08:57;8.90;51.50
19214;DHT22;9741;51.020;5.304;2023-04-15T03:11:27;8.90;51.50
19214;DHT22;9741;51.020;5.304;2023-04-15T03:13:54;9.00;51.50
19214;DHT22;9741;51.020;5.304;2023-04-15T03:16:22;8.90;51.40
19214;DHT22;9741;51.020;5.304;2023-04-15T03:18:49;8.90;51.50
19214;DHT22;9741;51.020;5.304;2023-04-15T03:21:16;9.00;51.60
19214;DHT22;9741;51.020;5.304;2023-04-15T03:23:45;9.00;51.60
19214;DHT22;9741;51.020;5.304;2023-04-15T03:26:26;9.00;51.60
19214;DHT22;9741;51.020;5.304;2023-04-15T03:28:54;9.00;51.60
19214;DHT22;9741;51.020;5.304;2023-04-15T03:31:21;9.00;51.70
19214;DHT22;9741;51.020;5.304;2023-04-15T03:33:48;9.00;51.70
19214;DHT22;9741;51.020;5.304;2023-04-15T03:36:15;8.90;51.70
19214;DHT22;9741;51.020;5.304;2023-04-15T03:38:43;8.90;52.30
19214;DHT22;9741;51.020;5.304;2023-04-15T03:41:10;8.90;51.80
19214;DHT22;9741;51.020;5.304;2023-04-15T03:43:39;8.90;51.80
19214;DHT22;9741;51.020;5.304;2023-04-15T03:46:06;8.90;51.80
19214;DHT22;9741;51.020;5.304;2023-04-15T03:48:33;8.90;51.80
19214;DHT22;9741;51.020;5.304;2023-04-15T03:51:00;8.90;51.90
19214;DHT22;9741;51.020;5.304;2023-04-15T03:53:27;8.90;51.90
19214;DHT22;9741;51.020;5.304;2023-04-15T03:55:55;8.90;51.90
19214;DHT22;9741;51.020;5.304;2023-04-15T03:58:22;8.90;52.00
19214;DHT22;9741;51.020;5.304;2023-04-15T04:00:50;8.80;51.90
19214;DHT22;9741;51.020;5.304;2023-04-15T04:03:17;8.90;52.10
19214;DHT22;9741;51.020;5.304;2023-04-15T04:05:45;8.80;52.10
19214;DHT22;9741;51.020;5.304;2023-04-15T04:08:12;8.80;52.10
19214;DHT22;9741;51.020;5.304;2023-04-15T04:10:43;8.80;52.20
19214;DHT22;9741;51.020;5.304;2023-04-15T04:13:10;8.70;52.20
19214;DHT22;9741;51.020;5.304;2023-04-15T04:15:37;8.70;52.30
19214;DHT22;9741;51.020;5.304;2023-04-15T04:18:05;8.70;52.30
19214;DHT22;9741;51.020;5.304;2023-04-15T04:20:32;8.70;52.40
19214;DHT22;9741;51.020;5.304;2023-04-15T04:23:00;8.70;52.40
19214;DHT22;9741;51.020;5.304;2023-04-15T04:25:27;8.70;52.50
19214;DHT22;9741;51.020;5.304;2023-04-15T04:27:54;8.70;52.50
19214;DHT22;9741;51.020;5.304;2023-04-15T04:30:21;8.70;52.50
19214;DHT22;9741;51.020;5.304;2023-04-15T04:32:49;8.70;52.50
19214;DHT22;9741;51.020;5.304;2023-04-15T04:35:18;8.60;52.50
19214;DHT22;9741;51.020;5.304;2023-04-15T04:37:45;8.60;52.60
19214;DHT22;9741;51.020;5.304;2023-04-15T04:40:12;8.60;52.70
19214;DHT22;9741;51.020;5.304;2023-04-15T04:42:39;8.60;52.70
19214;DHT22;9741;51.020;5.304;2023-04-15T04:45:07;8.60;52.70
19214;DHT22;9741;51.020;5.304;2023-04-15T04:47:34;8.60;52.70
19214;DHT22;9741;51.020;5.304;2023-04-15T04:50:02;8.60;52.70
19214;DHT22;9741;51.020;5.304;2023-04-15T04:52:30;8.50;52.70
19214;DHT22;9741;51.020;5.304;2023-04-15T04:54:57;8.50;52.80
19214;DHT22;9741;51.020;5.304;2023-04-15T04:57:25;8.50;52.80
19214;DHT22;9741;51.020;5.304;2023-04-15T04:59:52;8.50;52.90
19214;DHT22;9741;51.020;5.304;2023-04-15T05:02:19;8.50;52.90
19214;DHT22;9741;51.020;5.304;2023-04-15T05:04:46;8.50;53.00
19214;DHT22;9741;51.020;5.304;2023-04-15T05:07:14;8.60;53.10
19214;DHT22;9741;51.020;5.304;2023-04-15T05:09:43;8.60;53.10
19214;DHT22;9741;51.020;5.304;2023-04-15T05:12:10;8.60;53.20
19214;DHT22;9741;51.020;5.304;2023-04-15T05:14:39;8.60;53.20
19214;DHT22;9741;51.020;5.304;2023-04-15T05:17:07;8.60;53.30
19214;DHT22;9741;51.020;5.304;2023-04-15T05:19:34;8.60;53.30
19214;DHT22;9741;51.020;5.304;2023-04-15T05:22:01;8.60;53.40
19214;DHT22;9741;51.020;5.304;2023-04-15T05:24:28;8.60;53.40
19214;DHT22;9741;51.020;5.304;2023-04-15T05:26:57;8.70;53.50
19214;DHT22;9741;51.020;5.304;2023-04-15T05:29:24;8.80;53.60
19214;DHT22;9741;51.020;5.304;2023-04-15T05:31:51;8.80;53.60
19214;DHT22;9741;51.020;5.304;2023-04-15T05:34:18;8.80;53.50
19214;DHT22;9741;51.020;5.304;2023-04-15T05:36:45;8.90;53.60
19214;DHT22;9741;51.020;5.304;2023-04-15T05:39:12;9.00;53.60
19214;DHT22;9741;51.020;5.304;2023-04-15T05:41:39;9.00;53.60
19214;DHT22;9741;51.020;5.304;2023-04-15T05:44:08;9.10;53.70
19214;DHT22;9741;51.020;5.304;2023-04-15T05:46:35;9.20;53.70
19214;DHT22;9741;51.020;5.304;2023-04-15T05:49:04;9.30;53.80
19214;DHT22;9741;51.020;5.304;2023-04-15T05:51:32;9.50;53.80
19214;DHT22;9741;51.020;5.304;2023-04-15T05:53:59;9.60;53.70
19214;DHT22;9741;51.020;5.304;2023-04-15T05:56:26;9.70;53.60
19214;DHT22;9741;51.020;5.304;2023-04-15T05:58:53;9.80;53.60
19214;DHT22;9741;51.020;5.304;2023-04-15T06:01:21;9.90;53.50
19214;DHT22;9741;51.020;5.304;2023-04-15T06:03:49;10.00;52.40
19214;DHT22;9741;51.020;5.304;2023-04-15T06:06:16;10.10;52.40
19214;DHT22;9741;51.020;5.304;2023-04-15T06:08:43;10.20;52.30
19214;DHT22;9741;51.020;5.304;2023-04-15T06:11:11;10.30;52.10
19214;DHT22;9741;51.020;5.304;2023-04-15T06:13:38;10.30;52.00
19214;DHT22;9741;51.020;5.304;2023-04-15T06:16:05;10.40;51.90
19214;DHT22;9741;51.020;5.304;2023-04-15T06:18:34;10.60;51.90
19214;DHT22;9741;51.020;5.304;2023-04-15T06:21:01;10.70;51.80
19214;DHT22;9741;51.020;5.304;2023-04-15T06:23:28;10.80;51.70
19214;DHT22;9741;51.020;5.304;2023-04-15T06:25:56;11.00;51.60
19214;DHT22;9741;51.020;5.304;2023-04-15T06:28:23;11.20;51.50
19214;DHT22;9741;51.020;5.304;2023-04-15T06:30:50;11.40;51.20
19214;DHT22;9741;51.020;5.304;2023-04-15T06:33:18;11.50;50.80
19214;DHT22;9741;51.020;5.304;2023-04-15T06:35:47;11.60;50.60
19214;DHT22;9741;51.020;5.304;2023-04-15T06:38:14;11.80;50.60
19214;DHT22;9741;51.020;5.304;2023-04-15T06:40:41;11.90;50.40
19214;DHT22;9741;51.020;5.304;2023-04-15T06:43:09;12.00;50.20
19214;DHT22;9741;51.020;5.304;2023-04-15T06:45:36;12.10;49.90
19214;DHT22;9741;51.020;5.304;2023-04-15T06:48:04;12.10;49.70
19214;DHT22;9741;51.020;5.304;2023-04-15T06:50:31;12.10;49.50
19214;DHT22;9741;51.020;5.304;2023-04-15T06:53:01;12.10;49.40
19214;DHT22;9741;51.020;5.304;2023-04-15T06:55:29;12.20;49.50
19214;DHT22;9741;51.020;5.304;2023-04-15T06:57:56;12.20;49.40
19214;DHT22;9741;51.020;5.304;2023-04-15T07:00:23;12.20;49.30
19214;DHT22;9741;51.020;5.304;2023-04-15T07:02:50;12.30;49.30
19214;DHT22;9741;51.020;5.304;2023-04-15T07:05:18;12.40;49.30
19214;DHT22;9741;51.020;5.304;2023-04-15T07:07:45;12.70;50.00
19214;DHT22;9741;51.020;5.304;2023-04-15T07:10:15;13.30;49.50
19214;DHT22;9741;51.020;5.304;2023-04-15T07:12:49;14.10;49.50
19214;DHT22;9741;51.020;5.304;2023-04-15T07:15:17;15.20;49.20
19214;DHT22;9741;51.020;5.304;2023-04-15T07:17:44;16.10;48.30
19214;DHT22;9741;51.020;5.304;2023-04-15T07:20:12;17.00;47.70
19214;DHT22;9741;51.020;5.304;2023-04-15T07:22:40;17.80;46.60
19214;DHT22;9741;51.020;5.304;2023-04-15T07:25:08;18.40;45.80
19214;DHT22;9741;51.020;5.304;2023-04-15T07:27:39;19.20;45.30
19214;DHT22;9741;51.020;5.304;2023-04-15T07:30:08;20.00;44.40
19214;DHT22;9741;51.020;5.304;2023-04-15T07:32:35;20.60;43.40
19214;DHT22;9741;51.020;5.304;2023-04-15T07:35:03;21.10;42.80
19214;DHT22;9741;51.020;5.304;2023-04-15T07:37:31;21.60;42.10
19214;DHT22;9741;51.020;5.304;2023-04-15T07:39:59;21.80;41.00
19214;DHT22;9741;51.020;5.304;2023-04-15T07:42:26;22.00;40.50
19214;DHT22;9741;51.020;5.304;2023-04-15T07:44:55;22.20;40.30
19214;DHT22;9741;51.020;5.304;2023-04-15T07:47:26;22.60;39.80
19214;DHT22;9741;51.020;5.304;2023-04-15T07:49:53;22.70;39.10
19214;DHT22;9741;51.020;5.304;2023-04-15T07:52:20;22.90;38.90
19214;DHT22;9741;51.020;5.304;2023-04-15T07:54:47;23.20;38.70
19214;DHT22;9741;51.020;5.304;2023-04-15T07:57:15;23.40;38.20
19214;DHT22;9741;51.020;5.304;2023-04-15T07:59:43;23.50;37.80
19214;DHT22;9741;51.020;5.304;2023-04-15T08:02:11;23.50;38.10
19214;DHT22;9741;51.020;5.304;2023-04-15T08:04:38;23.60;37.20
19214;DHT22;9741;51.020;5.304;2023-04-15T08:07:06;23.60;37.00
19214;DHT22;9741;51.020;5.304;2023-04-15T08:09:34;23.70;36.80
19214;DHT22;9741;51.020;5.304;2023-04-15T08:12:01;23.80;36.60
19214;DHT22;9741;51.020;5.304;2023-04-15T08:14:29;23.70;36.20
19214;DHT22;9741;51.020;5.304;2023-04-15T08:16:56;23.40;35.90
19214;DHT22;9741;51.020;5.304;2023-04-15T08:19:25;23.30;36.00
19214;DHT22;9741;51.020;5.304;2023-04-15T08:21:52;23.40;36.10
19214;DHT22;9741;51.020;5.304;2023-04-15T08:24:19;23.10;35.50
19214;DHT22;9741;51.020;5.304;2023-04-15T08:26:46;22.90;35.50
19214;DHT22;9741;51.020;5.304;2023-04-15T08:29:14;22.50;35.30
19214;DHT22;9741;51.020;5.304;2023-04-15T08:31:41;22.30;35.50
19214;DHT22;9741;51.020;5.304;2023-04-15T08:34:10;22.20;35.70
19214;DHT22;9741;51.020;5.304;2023-04-15T08:36:39;22.30;35.70
19214;DHT22;9741;51.020;5.304;2023-04-15T08:39:06;22.40;35.60
19214;DHT22;9741;51.020;5.304;2023-04-15T08:41:39;22.50;35.60
19214;DHT22;9741;51.020;5.304;2023-04-15T08:44:06;22.30;35.30
19214;DHT22;9741;51.020;5.304;2023-04-15T08:46:33;22.40;35.50
19214;DHT22;9741;51.020;5.304;2023-04-15T08:49:03;22.40;35.30
19214;DHT22;9741;51.020;5.304;2023-04-15T08:51:31;22.20;35.20
19214;DHT22;9741;51.020;5.304;2023-04-15T08:54:04;22.20;35.30
19214;DHT22;9741;51.020;5.304;2023-04-15T08:56:32;22.30;35.20
19214;DHT22;9741;51.020;5.304;2023-04-15T08:58:59;22.30;34.90
19214;DHT22;9741;51.020;5.304;2023-04-15T09:01:29;22.30;34.90
19214;DHT22;9741;51.020;5.304;2023-04-15T09:03:59;22.30;34.90
19214;DHT22;9741;51.020;5.304;2023-04-15T09:06:32;22.40;34.90
19214;DHT22;9741;51.020;5.304;2023-04-15T09:09:04;22.70;35.00
19214;DHT22;9741;51.020;5.304;2023-04-15T09:11:32;22.90;34.70
19214;DHT22;9741;51.020;5.304;2023-04-15T09:14:00;22.80;34.30
19214;DHT22;9741;51.020;5.304;2023-04-15T09:16:27;22.80;34.30
19214;DHT22;9741;51.020;5.304;2023-04-15T09:18:54;22.80;34.40
19214;DHT22;9741;51.020;5.304;2023-04-15T09:21:21;23.00;34.40
19214;DHT22;9741;51.020;5.304;2023-04-15T09:23:56;23.00;34.50
19214;DHT22;9741;51.020;5.304;2023-04-15T09:26:32;23.20;34.40
19214;DHT22;9741;51.020;5.304;2023-04-15T09:29:04;23.10;33.80
19214;DHT22;9741;51.020;5.304;2023-04-15T09:31:33;22.80;33.40
19214;DHT22;9741;51.020;5.304;2023-04-15T09:34:01;22.50;33.50
19214;DHT22;9741;51.020;5.304;2023-04-15T09:36:29;22.20;33.70
19214;DHT22;9741;51.020;5.304;2023-04-15T09:38:58;22.10;34.10
19214;DHT22;9741;51.020;5.304;2023-04-15T09:41:26;22.00;34.20
19214;DHT22;9741;51.020;5.304;2023-04-15T09:43:55;21.90;34.40
19214;DHT22;9741;51.020;5.304;2023-04-15T09:46:40;21.80;34.60
19214;DHT22;9741;51.020;5.304;2023-04-15T09:49:09;21.90;34.80
19214;DHT22;9741;51.020;5.304;2023-04-15T09:51:40;22.10;34.60
19214;DHT22;9741;51.020;5.304;2023-04-15T09:54:08;22.30;34.30
19214;DHT22;9741;51.020;5.304;2023-04-15T09:56:37;22.50;34.00
19214;DHT22;9741;51.020;5.304;2023-04-15T09:59:08;22.80;33.80
19214;DHT22;9741;51.020;5.304;2023-04-15T10:01:35;23.10;33.50
19214;DHT22;9741;51.020;5.304;2023-04-15T10:04:05;23.10;33.20
19214;DHT22;9741;51.020;5.304;2023-04-15T10:06:36;23.20;33.20
19214;DHT22;9741;51.020;5.304;2023-04-15T10:09:05;23.40;33.00
19214;DHT22;9741;51.020;5.304;2023-04-15T10:11:34;23.60;32.80
19214;DHT22;9741;51.020;5.304;2023-04-15T10:14:03;24.00;32.50
19214;DHT22;9741;51.020;5.304;2023-04-15T10:16:32;24.20;32.20
19214;DHT22;9741;51.020;5.304;2023-04-15T10:19:01;24.40;31.70
19214;DHT22;9741;51.020;5.304;2023-04-15T10:21:29;24.30;30.40
19214;DHT22;9741;51.020;5.304;2023-04-15T10:23:57;23.90;29.90
19214;DHT22;9741;51.020;5.304;2023-04-15T10:26:25;23.50;29.80
19214;DHT22;9741;51.020;5.304;2023-04-15T10:28:55;23.10;29.90
19214;DHT22;9741;51.020;5.304;2023-04-15T10:31:22;22.70;29.80
19214;DHT22;9741;51.020;5.304;2023-04-15T10:33:54;22.40;30.00
19214;DHT22;9741;51.020;5.304;2023-04-15T10:36:23;22.10;30.00
19214;DHT22;9741;51.020;5.304;2023-04-15T10:38:51;22.00;30.20
19214;DHT22;9741;51.020;5.304;2023-04-15T10:41:19;21.80;30.20
19214;DHT22;9741;51.020;5.304;2023-04-15T10:43:50;21.60;30.40
19214;DHT22;9741;51.020;5.304;2023-04-15T10:46:20;21.30;30.50
19214;DHT22;9741;51.020;5.304;2023-04-15T10:48:48;20.90;30.30
19214;DHT22;9741;51.020;5.304;2023-04-15T10:51:26;20.40;30.10
19214;DHT22;9741;51.020;5.304;2023-04-15T10:53:56;19.90;30.20
19214;DHT22;9741;51.020;5.304;2023-04-15T10:56:28;19.40;30.50
19214;DHT22;9741;51.020;5.304;2023-04-15T10:58:58;19.00;30.80
19214;DHT22;9741;51.020;5.304;2023-04-15T11:04:54;18.50;31.60
19214;DHT22;9741;51.020;5.304;2023-04-15T11:07:37;18.20;32.00
19214;DHT22;9741;51.020;5.304;2023-04-15T11:13:25;18.00;33.10
19214;DHT22;9741;51.020;5.304;2023-04-15T11:16:03;18.00;33.60
19214;DHT22;9741;51.020;5.304;2023-04-15T11:18:32;18.00;33.70
19214;DHT22;9741;51.020;5.304;2023-04-15T11:21:03;18.10;33.50
19214;DHT22;9741;51.020;5.304;2023-04-15T11:23:34;18.10;33.40
19214;DHT22;9741;51.020;5.304;2023-04-15T11:26:04;18.00;33.40
19214;DHT22;9741;51.020;5.304;2023-04-15T11:28:38;17.90;33.50
19214;DHT22;9741;51.020;5.304;2023-04-15T11:31:12;18.00;33.90
19214;DHT22;9741;51.020;5.304;2023-04-15T11:33:46;17.90;33.90
19214;DHT22;9741;51.020;5.304;2023-04-15T11:36:19;18.00;34.20
19214;DHT22;9741;51.020;5.304;2023-04-15T11:38:48;17.90;34.20
19214;DHT22;9741;51.020;5.304;2023-04-15T11:41:19;17.80;34.30
19214;DHT22;9741;51.020;5.304;2023-04-15T11:43:47;17.90;34.70
19214;DHT22;9741;51.020;5.304;2023-04-15T11:46:14;17.90;34.70
19214;DHT22;9741;51.020;5.304;2023-04-15T11:48:44;17.90;34.70
19214;DHT22;9741;51.020;5.304;2023-04-15T11:51:12;17.80;34.60
19214;DHT22;9741;51.020;5.304;2023-04-15T11:53:42;17.80;34.70
19214;DHT22;9741;51.020;5.304;2023-04-15T11:56:18;17.80;34.60
19214;DHT22;9741;51.020;5.304;2023-04-15T11:58:54;17.80;34.20
19214;DHT22;9741;51.020;5.304;2023-04-15T12:01:30;17.70;34.20
19214;DHT22;9741;51.020;5.304;2023-04-15T12:03:58;17.80;34.60
19214;DHT22;9741;51.020;5.304;2023-04-15T12:06:31;17.80;34.80
19214;DHT22;9741;51.020;5.304;2023-04-15T12:09:03;17.80;35.00
19214;DHT22;9741;51.020;5.304;2023-04-15T12:11:35;17.70;34.70
19214;DHT22;9741;51.020;5.304;2023-04-15T12:14:06;17.70;34.70
19214;DHT22;9741;51.020;5.304;2023-04-15T12:16:35;17.70;34.70
19214;DHT22;9741;51.020;5.304;2023-04-15T12:19:05;17.70;34.70
19214;DHT22;9741;51.020;5.304;2023-04-15T12:21:37;17.70;34.80
19214;DHT22;9741;51.020;5.304;2023-04-15T12:24:08;17.80;34.90
19214;DHT22;9741;51.020;5.304;2023-04-15T12:26:43;17.80;34.40
19214;DHT22;9741;51.020;5.304;2023-04-15T12:29:12;17.80;34.60
19214;DHT22;9741;51.020;5.304;2023-04-15T12:31:50;17.70;33.70
19214;DHT22;9741;51.020;5.304;2023-04-15T12:34:31;17.70;33.70
19214;DHT22;9741;51.020;5.304;2023-04-15T12:37:04;17.70;33.80
19214;DHT22;9741;51.020;5.304;2023-04-15T12:43:16;17.70;33.80
19214;DHT22;9741;51.020;5.304;2023-04-15T12:45:43;17.70;34.20
19214;DHT22;9741;51.020;5.304;2023-04-15T12:48:10;17.70;34.20
19214;DHT22;9741;51.020;5.304;2023-04-15T12:50:37;17.70;34.30
19214;DHT22;9741;51.020;5.304;2023-04-15T12:53:05;17.70;34.20
19214;DHT22;9741;51.020;5.304;2023-04-15T12:55:35;17.70;33.90
19214;DHT22;9741;51.020;5.304;2023-04-15T12:58:12;17.70;33.70
19214;DHT22;9741;51.020;5.304;2023-04-15T13:00:42;17.70;34.00
19214;DHT22;9741;51.020;5.304;2023-04-15T13:03:10;17.70;34.00
19214;DHT22;9741;51.020;5.304;2023-04-15T13:05:42;17.80;34.00
19214;DHT22;9741;51.020;5.304;2023-04-15T13:08:10;17.90;33.80
19214;DHT22;9741;51.020;5.304;2023-04-15T13:10:37;17.90;33.70
19214;DHT22;9741;51.020;5.304;2023-04-15T13:13:05;17.90;33.50
19214;DHT22;9741;51.020;5.304;2023-04-15T13:15:33;18.00;33.50
19214;DHT22;9741;51.020;5.304;2023-04-15T13:18:03;17.90;33.60
19214;DHT22;9741;51.020;5.304;2023-04-15T13:20:31;18.00;33.70
19214;DHT22;9741;51.020;5.304;2023-04-15T13:23:03;18.00;34.00
19214;DHT22;9741;51.020;5.304;2023-04-15T13:25:31;18.10;34.30
19214;DHT22;9741;51.020;5.304;2023-04-15T13:27:58;18.20;34.30
19214;DHT22;9741;51.020;5.304;2023-04-15T13:30:28;18.20;34.30
19214;DHT22;9741;51.020;5.304;2023-04-15T13:32:56;18.20;34.30
19214;DHT22;9741;51.020;5.304;2023-04-15T13:35:26;18.20;34.30
19214;DHT22;9741;51.020;5.304;2023-04-15T13:37:53;18.20;34.30
19214;DHT22;9741;51.020;5.304;2023-04-15T13:40:21;18.10;34.20
19214;DHT22;9741;51.020;5.304;2023-04-15T13:42:49;18.00;34.00
19214;DHT22;9741;51.020;5.304;2023-04-15T13:45:17;17.90;33.80
19214;DHT22;9741;51.020;5.304;2023-04-15T13:47:49;17.70;33.70
19214;DHT22;9741;51.020;5.304;2023-04-15T13:50:16;17.70;34.00
19214;DHT22;9741;51.020;5.304;2023-04-15T13:52:46;17.60;34.10
19214;DHT22;9741;51.020;5.304;2023-04-15T13:55:16;17.70;34.30
19214;DHT22;9741;51.020;5.304;2023-04-15T13:57:45;17.70;34.40
19214;DHT22;9741;51.020;5.304;2023-04-15T14:00:13;17.70;34.90
19214;DHT22;9741;51.020;5.304;2023-04-15T14:02:41;17.70;34.80
19214;DHT22;9741;51.020;5.304;2023-04-15T14:05:09;17.60;34.60
19214;DHT22;9741;51.020;5.304;2023-04-15T14:07:36;17.50;34.70
19214;DHT22;9741;51.020;5.304;2023-04-15T14:10:07;17.40;34.80
19214;DHT22;9741;51.020;5.304;2023-04-15T14:12:34;17.50;35.10
19214;DHT22;9741;51.020;5.304;2023-04-15T14:15:03;17.50;35.20
19214;DHT22;9741;51.020;5.304;2023-04-15T14:17:31;17.50;35.20
19214;DHT22;9741;51.020;5.304;2023-04-15T14:19:59;17.50;35.10
19214;DHT22;9741;51.020;5.304;2023-04-15T14:22:26;17.60;35.30
19214;DHT22;9741;51.020;5.304;2023-04-15T14:24:53;17.60;35.30
19214;DHT22;9741;51.020;5.304;2023-04-15T14:27:22;17.70;35.50
19214;DHT22;9741;51.020;5.304;2023-04-15T14:29:49;17.80;35.70
19214;DHT22;9741;51.020;5.304;2023-04-15T14:32:16;17.80;35.60
19214;DHT22;9741;51.020;5.304;2023-04-15T14:34:43;18.00;35.90
19214;DHT22;9741;51.020;5.304;2023-04-15T14:37:11;18.10;36.20
19214;DHT22;9741;51.020;5.304;2023-04-15T14:39:39;18.20;36.10
19214;DHT22;9741;51.020;5.304;2023-04-15T14:42:06;18.10;36.00
19214;DHT22;9741;51.020;5.304;2023-04-15T14:44:35;18.10;36.00
19214;DHT22;9741;51.020;5.304;2023-04-15T14:47:03;18.20;36.10
19214;DHT22;9741;51.020;5.304;2023-04-15T14:49:32;18.30;36.10
19214;DHT22;9741;51.020;5.304;2023-04-15T14:51:59;18.30;36.00
19214;DHT22;9741;51.020;5.304;2023-04-15T14:54:26;18.20;36.00
19214;DHT22;9741;51.020;5.304;2023-04-15T14:56:53;18.20;36.30
19214;DHT22;9741;51.020;5.304;2023-04-15T14:59:21;18.20;36.50
19214;DHT22;9741;51.020;5.304;2023-04-15T15:01:51;18.10;36.20
19214;DHT22;9741;51.020;5.304;2023-04-15T15:04:19;17.90;36.20
19214;DHT22;9741;51.020;5.304;2023-04-15T15:06:46;17.80;36.30
19214;DHT22;9741;51.020;5.304;2023-04-15T15:09:13;17.80;36.30
19214;DHT22;9741;51.020;5.304;2023-04-15T15:11:41;17.80;36.40
19214;DHT22;9741;51.020;5.304;2023-04-15T15:14:11;17.70;36.30
19214;DHT22;9741;51.020;5.304;2023-04-15T15:16:39;17.70;36.40
19214;DHT22;9741;51.020;5.304;2023-04-15T15:19:09;17.60;36.40
19214;DHT22;9741;51.020;5.304;2023-04-15T15:21:38;17.60;36.50
19214;DHT22;9741;51.020;5.304;2023-04-15T15:24:05;17.50;36.50
19214;DHT22;9741;51.020;5.304;2023-04-15T15:26:33;17.50;36.50
19214;DHT22;9741;51.020;5.304;2023-04-15T15:29:01;17.40;36.30
19214;DHT22;9741;51.020;5.304;2023-04-15T15:31:29;17.40;36.40
19214;DHT22;9741;51.020;5.304;2023-04-15T15:33:57;17.40;36.50
19214;DHT22;9741;51.020;5.304;2023-04-15T15:36:25;17.40;36.60
19214;DHT22;9741;51.020;5.304;2023-04-15T15:38:53;17.40;36.80
19214;DHT22;9741;51.020;5.304;2023-04-15T15:41:20;17.40;36.80
19214;DHT22;9741;51.020;5.304;2023-04-15T15:43:47;17.40;36.90
19214;DHT22;9741;51.020;5.304;2023-04-15T15:46:14;17.40;37.00
19214;DHT22;9741;51.020;5.304;2023-04-15T15:48:43;17.30;37.00
19214;DHT22;9741;51.020;5.304;2023-04-15T15:51:11;17.20;37.00
19214;DHT22;9741;51.020;5.304;2023-04-15T15:53:43;17.10;37.10
19214;DHT22;9741;51.020;5.304;2023-04-15T15:56:12;17.00;37.00
19214;DHT22;9741;51.020;5.304;2023-04-15T15:58:40;16.90;37.00
19214;DHT22;9741;51.020;5.304;2023-04-15T16:01:08;16.80;37.20
19214;DHT22;9741;51.020;5.304;2023-04-15T16:03:36;16.80;37.30
19214;DHT22;9741;51.020;5.304;2023-04-15T16:06:03;16.80;37.30
19214;DHT22;9741;51.020;5.304;2023-04-15T16:08:30;16.80;37.30
19214;DHT22;9741;51.020;5.304;2023-04-15T16:10:59;16.70;37.30